sensor_id;sensor_type;location;lat;lon;timestamp;P1;durP1;ratioP1;P2;durP2;ratioP2
64959;SDS011;51487;52.266;10.542;2022-12-07T00:01:21;13.05;;;10.45;;
64959;SDS011;51487;52.266;10.542;2022-12-07T00:03:53;11.50;;;10.05;;
64959;SDS011;51487;52.266;10.542;2022-12-07T00:06:29;13.93;;;10.88;;
64959;SDS011;51487;52.266;10.542;2022-12-07T00:08:57;14.30;;;10.77;;
64959;SDS011;51487;52.266;10.542;2022-12-07T00:11:23;13.80;;;11.25;;
64959;SDS011;51487;52.266;10.542;2022-12-07T00:13:53;12.57;;;10.38;;
64959;SDS011;51487;52.266;10.542;2022-12-07T00:16:22;14.20;;;10.63;;
64959;SDS011;51487;52.266;10.542;2022-12-07T00:18:50;11.82;;;10.07;;
64959;SDS011;51487;52.266;10.542;2022-12-07T00:21:20;13.05;;;10.30;;
64959;SDS011;51487;52.266;10.542;2022-12-07T00:23:48;14.82;;;11.68;;
64959;SDS011;51487;52.266;10.542;2022-12-07T00:26:38;12.02;;;10.48;;
64959;SDS011;51487;52.266;10.542;2022-12-07T00:29:05;14.45;;;10.45;;
64959;SDS011;51487;52.266;10.542;2022-12-07T00:31:37;14.35;;;11.48;;
64959;SDS011;51487;52.266;10.542;2022-12-07T00:34:04;15.25;;;12.18;;
64959;SDS011;51487;52.266;10.542;2022-12-07T00:36:37;14.20;;;10.93;;
64959;SDS011;51487;52.266;10.542;2022-12-07T00:39:02;15.10;;;11.55;;
64959;SDS011;51487;52.266;10.542;2022-12-07T00:41:28;13.80;;;11.27;;
64959;SDS011;51487;52.266;10.542;2022-12-07T00:43:55;16.17;;;12.50;;
64959;SDS011;51487;52.266;10.542;2022-12-07T00:46:21;16.42;;;12.60;;
64959;SDS011;51487;52.266;10.542;2022-12-07T00:48:48;16.25;;;12.35;;
64959;SDS011;51487;52.266;10.542;2022-12-07T00:51:16;16.75;;;12.90;;
64959;SDS011;51487;52.266;10.542;2022-12-07T00:53:44;16.02;;;12.48;;
64959;SDS011;51487;52.266;10.542;2022-12-07T00:56:23;19.02;;;13.70;;
64959;SDS011;51487;52.266;10.542;2022-12-07T00:58:53;16.73;;;12.93;;
64959;SDS011;51487;52.266;10.542;2022-12-07T01:01:28;17.95;;;12.75;;
64959;SDS011;51487;52.266;10.542;2022-12-07T01:03:56;20.70;;;13.73;;
64959;SDS011;51487;52.266;10.542;2022-12-07T01:06:23;17.52;;;13.32;;
64959;SDS011;51487;52.266;10.542;2022-12-07T01:08:50;16.95;;;12.77;;
64959;SDS011;51487;52.266;10.542;2022-12-07T01:11:18;20.13;;;13.85;;
64959;SDS011;51487;52.266;10.542;2022-12-07T01:13:48;23.23;;;15.55;;
64959;SDS011;51487;52.266;10.542;2022-12-07T01:16:16;21.05;;;14.27;;
64959;SDS011;51487;52.266;10.542;2022-12-07T01:18:45;19.90;;;13.88;;
64959;SDS011;51487;52.266;10.542;2022-12-07T01:21:15;20.23;;;14.25;;
64959;SDS011;51487;52.266;10.542;2022-12-07T01:23:46;21.88;;;14.30;;
64959;SDS011;51487;52.266;10.542;2022-12-07T01:26:15;20.23;;;14.48;;
64959;SDS011;51487;52.266;10.542;2022-12-07T01:28:44;20.45;;;14.18;;
64959;SDS011;51487;52.266;10.542;2022-12-07T01:31:12;19.77;;;14.48;;
64959;SDS011;51487;52.266;10.542;2022-12-07T01:33:46;18.33;;;14.52;;
64959;SDS011;51487;52.266;10.542;2022-12-07T01:36:19;19.58;;;14.32;;
64959;SDS011;51487;52.266;10.542;2022-12-07T01:38:54;20.73;;;15.55;;
64959;SDS011;51487;52.266;10.542;2022-12-07T01:41:23;18.20;;;13.75;;
64959;SDS011;51487;52.266;10.542;2022-12-07T01:46:43;20.70;;;14.80;;
64959;SDS011;51487;52.266;10.542;2022-12-07T01:49:18;21.10;;;14.80;;
64959;SDS011;51487;52.266;10.542;2022-12-07T01:52:19;21.10;;;15.40;;
64959;SDS011;51487;52.266;10.542;2022-12-07T01:55:00;22.02;;;15.75;;
64959;SDS011;51487;52.266;10.542;2022-12-07T01:57:32;21.75;;;15.80;;
64959;SDS011;51487;52.266;10.542;2022-12-07T02:00:01;23.52;;;16.10;;
64959;SDS011;51487;52.266;10.542;2022-12-07T02:02:30;22.75;;;15.50;;
64959;SDS011;51487;52.266;10.542;2022-12-07T02:05:02;22.13;;;15.75;;
64959;SDS011;51487;52.266;10.542;2022-12-07T02:07:31;25.15;;;15.90;;
64959;SDS011;51487;52.266;10.542;2022-12-07T02:10:17;23.90;;;16.45;;
64959;SDS011;51487;52.266;10.542;2022-12-07T02:12:49;23.45;;;16.50;;
64959;SDS011;51487;52.266;10.542;2022-12-07T02:15:22;21.48;;;15.27;;
64959;SDS011;51487;52.266;10.542;2022-12-07T02:18:12;19.58;;;14.43;;
64959;SDS011;51487;52.266;10.542;2022-12-07T02:21:16;22.70;;;14.27;;
64959;SDS011;51487;52.266;10.542;2022-12-07T02:29:45;19.73;;;15.05;;
64959;SDS011;51487;52.266;10.542;2022-12-07T02:43:31;18.52;;;15.02;;
64959;SDS011;51487;52.266;10.542;2022-12-07T02:46:07;20.55;;;14.55;;
64959;SDS011;51487;52.266;10.542;2022-12-07T02:48:39;20.15;;;15.27;;
64959;SDS011;51487;52.266;10.542;2022-12-07T02:51:08;18.95;;;14.52;;
64959;SDS011;51487;52.266;10.542;2022-12-07T02:53:40;20.98;;;14.73;;
64959;SDS011;51487;52.266;10.542;2022-12-07T02:56:13;18.63;;;13.77;;
64959;SDS011;51487;52.266;10.542;2022-12-07T03:04:19;19.13;;;14.23;;
64959;SDS011;51487;52.266;10.542;2022-12-07T03:10:45;19.52;;;14.48;;
64959;SDS011;51487;52.266;10.542;2022-12-07T03:13:28;17.70;;;13.43;;
64959;SDS011;51487;52.266;10.542;2022-12-07T03:16:05;16.75;;;13.65;;
64959;SDS011;51487;52.266;10.542;2022-12-07T03:18:51;16.98;;;13.05;;
64959;SDS011;51487;52.266;10.542;2022-12-07T03:21:31;15.38;;;12.18;;
64959;SDS011;51487;52.266;10.542;2022-12-07T03:24:05;15.45;;;12.55;;
64959;SDS011;51487;52.266;10.542;2022-12-07T03:26:39;17.10;;;12.45;;
64959;SDS011;51487;52.266;10.542;2022-12-07T03:29:28;16.42;;;13.05;;
64959;SDS011;51487;52.266;10.542;2022-12-07T03:32:04;14.90;;;12.45;;
64959;SDS011;51487;52.266;10.542;2022-12-07T03:34:44;16.10;;;11.85;;
64959;SDS011;51487;52.266;10.542;2022-12-07T03:40:40;15.85;;;11.90;;
64959;SDS011;51487;52.266;10.542;2022-12-07T03:43:29;18.23;;;12.18;;
64959;SDS011;51487;52.266;10.542;2022-12-07T03:46:02;14.25;;;12.45;;
64959;SDS011;51487;52.266;10.542;2022-12-07T03:48:51;15.50;;;12.43;;
64959;SDS011;51487;52.266;10.542;2022-12-07T03:51:31;16.23;;;12.18;;
64959;SDS011;51487;52.266;10.542;2022-12-07T03:54:13;15.32;;;12.02;;
64959;SDS011;51487;52.266;10.542;2022-12-07T03:56:44;14.95;;;11.65;;
64959;SDS011;51487;52.266;10.542;2022-12-07T03:59:11;15.07;;;12.82;;
64959;SDS011;51487;52.266;10.542;2022-12-07T04:01:51;15.07;;;12.23;;
64959;SDS011;51487;52.266;10.542;2022-12-07T04:04:23;18.98;;;12.50;;
64959;SDS011;51487;52.266;10.542;2022-12-07T04:06:50;16.73;;;12.60;;
64959;SDS011;51487;52.266;10.542;2022-12-07T04:09:16;15.45;;;12.13;;
64959;SDS011;51487;52.266;10.542;2022-12-07T04:11:42;14.23;;;12.38;;
64959;SDS011;51487;52.266;10.542;2022-12-07T04:14:08;14.65;;;11.02;;
64959;SDS011;51487;52.266;10.542;2022-12-07T04:19:22;16.70;;;12.00;;
64959;SDS011;51487;52.266;10.542;2022-12-07T04:21:50;14.10;;;12.02;;
64959;SDS011;51487;52.266;10.542;2022-12-07T04:24:16;14.35;;;10.65;;
64959;SDS011;51487;52.266;10.542;2022-12-07T04:26:43;13.73;;;10.38;;
64959;SDS011;51487;52.266;10.542;2022-12-07T04:29:09;14.25;;;10.68;;
64959;SDS011;51487;52.266;10.542;2022-12-07T04:31:36;14.60;;;10.38;;
64959;SDS011;51487;52.266;10.542;2022-12-07T04:34:02;13.57;;;10.38;;
64959;SDS011;51487;52.266;10.542;2022-12-07T04:36:30;13.40;;;9.95;;
64959;SDS011;51487;52.266;10.542;2022-12-07T04:38:56;13.57;;;10.55;;
64959;SDS011;51487;52.266;10.542;2022-12-07T04:41:22;11.18;;;9.85;;
64959;SDS011;51487;52.266;10.542;2022-12-07T04:43:53;15.45;;;10.95;;
64959;SDS011;51487;52.266;10.542;2022-12-07T04:46:28;15.02;;;10.60;;
64959;SDS011;51487;52.266;10.542;2022-12-07T04:48:55;14.05;;;10.68;;
64959;SDS011;51487;52.266;10.542;2022-12-07T04:51:23;14.20;;;10.48;;
64959;SDS011;51487;52.266;10.542;2022-12-07T04:53:51;14.20;;;10.18;;
64959;SDS011;51487;52.266;10.542;2022-12-07T04:56:17;15.90;;;10.63;;
64959;SDS011;51487;52.266;10.542;2022-12-07T04:58:43;16.60;;;11.13;;
64959;SDS011;51487;52.266;10.542;2022-12-07T05:01:12;16.00;;;10.82;;
64959;SDS011;51487;52.266;10.542;2022-12-07T05:03:38;11.45;;;9.32;;
64959;SDS011;51487;52.266;10.542;2022-12-07T05:06:05;15.80;;;10.98;;
64959;SDS011;51487;52.266;10.542;2022-12-07T05:08:32;16.45;;;9.90;;
64959;SDS011;51487;52.266;10.542;2022-12-07T05:10:59;14.52;;;9.63;;
64959;SDS011;51487;52.266;10.542;2022-12-07T05:13:25;14.18;;;9.88;;
64959;SDS011;51487;52.266;10.542;2022-12-07T05:15:51;17.00;;;10.85;;
64959;SDS011;51487;52.266;10.542;2022-12-07T05:18:16;14.73;;;9.55;;
64959;SDS011;51487;52.266;10.542;2022-12-07T05:20:42;15.60;;;10.35;;
64959;SDS011;51487;52.266;10.542;2022-12-07T05:23:09;14.00;;;9.27;;
64959;SDS011;51487;52.266;10.542;2022-12-07T05:25:35;14.77;;;10.70;;
64959;SDS011;51487;52.266;10.542;2022-12-07T05:28:01;16.17;;;9.55;;
64959;SDS011;51487;52.266;10.542;2022-12-07T05:30:27;15.45;;;9.35;;
64959;SDS011;51487;52.266;10.542;2022-12-07T05:32:53;12.02;;;8.93;;
64959;SDS011;51487;52.266;10.542;2022-12-07T05:35:19;15.02;;;9.63;;
64959;SDS011;51487;52.266;10.542;2022-12-07T05:37:44;12.57;;;9.52;;
64959;SDS011;51487;52.266;10.542;2022-12-07T05:40:11;12.52;;;9.50;;
64959;SDS011;51487;52.266;10.542;2022-12-07T05:42:38;11.73;;;9.25;;
64959;SDS011;51487;52.266;10.542;2022-12-07T05:45:05;12.80;;;9.25;;
64959;SDS011;51487;52.266;10.542;2022-12-07T05:47:32;13.43;;;9.60;;
64959;SDS011;51487;52.266;10.542;2022-12-07T05:49:57;14.38;;;9.55;;
64959;SDS011;51487;52.266;10.542;2022-12-07T05:52:23;13.93;;;9.63;;
64959;SDS011;51487;52.266;10.542;2022-12-07T05:54:49;13.90;;;9.18;;
64959;SDS011;51487;52.266;10.542;2022-12-07T05:57:14;15.30;;;9.65;;
64959;SDS011;51487;52.266;10.542;2022-12-07T05:59:40;11.93;;;8.75;;
64959;SDS011;51487;52.266;10.542;2022-12-07T06:02:09;10.57;;;8.23;;
64959;SDS011;51487;52.266;10.542;2022-12-07T06:04:40;13.70;;;8.35;;
64959;SDS011;51487;52.266;10.542;2022-12-07T06:07:08;13.40;;;8.60;;
64959;SDS011;51487;52.266;10.542;2022-12-07T06:09:36;13.77;;;9.20;;
64959;SDS011;51487;52.266;10.542;2022-12-07T06:12:02;12.80;;;8.43;;
64959;SDS011;51487;52.266;10.542;2022-12-07T06:14:47;11.55;;;7.70;;
64959;SDS011;51487;52.266;10.542;2022-12-07T06:17:13;11.80;;;7.80;;
64959;SDS011;51487;52.266;10.542;2022-12-07T06:19:40;9.95;;;6.90;;
64959;SDS011;51487;52.266;10.542;2022-12-07T06:22:06;7.18;;;5.47;;
64959;SDS011;51487;52.266;10.542;2022-12-07T06:24:34;8.73;;;5.30;;
64959;SDS011;51487;52.266;10.542;2022-12-07T06:27:00;6.10;;;4.63;;
64959;SDS011;51487;52.266;10.542;2022-12-07T06:29:25;8.88;;;4.80;;
64959;SDS011;51487;52.266;10.542;2022-12-07T06:31:51;7.20;;;4.55;;
64959;SDS011;51487;52.266;10.542;2022-12-07T06:34:19;7.43;;;3.72;;
64959;SDS011;51487;52.266;10.542;2022-12-07T06:36:47;6.80;;;3.90;;
64959;SDS011;51487;52.266;10.542;2022-12-07T06:39:16;6.03;;;4.07;;
64959;SDS011;51487;52.266;10.542;2022-12-07T06:41:43;9.40;;;4.88;;
64959;SDS011;51487;52.266;10.542;2022-12-07T06:44:09;6.97;;;5.05;;
64959;SDS011;51487;52.266;10.542;2022-12-07T06:46:35;9.45;;;5.60;;
64959;SDS011;51487;52.266;10.542;2022-12-07T06:49:00;8.38;;;6.10;;
64959;SDS011;51487;52.266;10.542;2022-12-07T06:51:27;9.50;;;6.35;;
64959;SDS011;51487;52.266;10.542;2022-12-07T06:53:52;8.40;;;6.68;;
64959;SDS011;51487;52.266;10.542;2022-12-07T06:56:19;12.13;;;7.45;;
64959;SDS011;51487;52.266;10.542;2022-12-07T06:58:44;8.90;;;7.35;;
64959;SDS011;51487;52.266;10.542;2022-12-07T07:01:10;11.07;;;6.72;;
64959;SDS011;51487;52.266;10.542;2022-12-07T07:03:39;9.85;;;7.25;;
64959;SDS011;51487;52.266;10.542;2022-12-07T07:06:05;9.88;;;7.28;;
64959;SDS011;51487;52.266;10.542;2022-12-07T07:08:32;9.20;;;7.40;;
64959;SDS011;51487;52.266;10.542;2022-12-07T07:10:59;10.10;;;7.53;;
64959;SDS011;51487;52.266;10.542;2022-12-07T07:13:25;11.15;;;6.72;;
64959;SDS011;51487;52.266;10.542;2022-12-07T07:15:51;9.32;;;7.60;;
64959;SDS011;51487;52.266;10.542;2022-12-07T07:18:16;12.93;;;9.10;;
64959;SDS011;51487;52.266;10.542;2022-12-07T07:20:42;13.10;;;9.98;;
64959;SDS011;51487;52.266;10.542;2022-12-07T07:23:07;15.70;;;9.75;;
64959;SDS011;51487;52.266;10.542;2022-12-07T07:25:33;14.35;;;9.75;;
64959;SDS011;51487;52.266;10.542;2022-12-07T07:27:59;16.10;;;11.05;;
64959;SDS011;51487;52.266;10.542;2022-12-07T07:30:25;14.80;;;10.23;;
64959;SDS011;51487;52.266;10.542;2022-12-07T07:32:51;16.23;;;10.60;;
64959;SDS011;51487;52.266;10.542;2022-12-07T07:35:24;13.82;;;10.85;;
64959;SDS011;51487;52.266;10.542;2022-12-07T07:37:51;16.85;;;10.65;;
64959;SDS011;51487;52.266;10.542;2022-12-07T07:40:16;17.58;;;11.18;;
64959;SDS011;51487;52.266;10.542;2022-12-07T07:42:42;16.77;;;10.90;;
64959;SDS011;51487;52.266;10.542;2022-12-07T07:45:08;15.95;;;11.70;;
64959;SDS011;51487;52.266;10.542;2022-12-07T07:47:34;16.83;;;10.65;;
64959;SDS011;51487;52.266;10.542;2022-12-07T07:49:59;13.43;;;10.45;;
64959;SDS011;51487;52.266;10.542;2022-12-07T07:52:25;15.90;;;10.93;;
64959;SDS011;51487;52.266;10.542;2022-12-07T07:54:51;12.60;;;9.88;;
64959;SDS011;51487;52.266;10.542;2022-12-07T07:57:17;15.38;;;10.75;;
64959;SDS011;51487;52.266;10.542;2022-12-07T07:59:43;14.57;;;10.88;;
64959;SDS011;51487;52.266;10.542;2022-12-07T08:02:13;14.93;;;11.10;;
64959;SDS011;51487;52.266;10.542;2022-12-07T08:04:41;15.27;;;10.45;;
64959;SDS011;51487;52.266;10.542;2022-12-07T08:07:07;17.65;;;10.95;;
64959;SDS011;51487;52.266;10.542;2022-12-07T08:09:32;18.92;;;11.95;;
64959;SDS011;51487;52.266;10.542;2022-12-07T08:11:58;18.60;;;10.85;;
64959;SDS011;51487;52.266;10.542;2022-12-07T08:14:24;16.83;;;9.70;;
64959;SDS011;51487;52.266;10.542;2022-12-07T08:16:49;13.93;;;9.48;;
64959;SDS011;51487;52.266;10.542;2022-12-07T08:19:15;14.80;;;9.50;;
64959;SDS011;51487;52.266;10.542;2022-12-07T08:21:40;16.95;;;9.73;;
64959;SDS011;51487;52.266;10.542;2022-12-07T08:24:06;13.30;;;8.80;;
64959;SDS011;51487;52.266;10.542;2022-12-07T08:26:32;14.80;;;8.38;;
64959;SDS011;51487;52.266;10.542;2022-12-07T08:28:57;12.93;;;8.48;;
64959;SDS011;51487;52.266;10.542;2022-12-07T08:31:22;11.68;;;8.35;;
64959;SDS011;51487;52.266;10.542;2022-12-07T08:33:49;14.60;;;8.50;;
64959;SDS011;51487;52.266;10.542;2022-12-07T08:36:15;17.98;;;9.80;;
64959;SDS011;51487;52.266;10.542;2022-12-07T08:38:42;17.58;;;8.32;;
64959;SDS011;51487;52.266;10.542;2022-12-07T08:41:08;12.32;;;7.70;;
64959;SDS011;51487;52.266;10.542;2022-12-07T08:43:34;15.07;;;9.38;;
64959;SDS011;51487;52.266;10.542;2022-12-07T08:46:20;14.20;;;8.80;;
64959;SDS011;51487;52.266;10.542;2022-12-07T08:48:57;11.57;;;7.63;;
64959;SDS011;51487;52.266;10.542;2022-12-07T08:51:29;11.38;;;7.68;;
64959;SDS011;51487;52.266;10.542;2022-12-07T08:53:55;9.73;;;7.35;;
64959;SDS011;51487;52.266;10.542;2022-12-07T08:56:25;11.40;;;8.05;;
64959;SDS011;51487;52.266;10.542;2022-12-07T08:58:51;12.73;;;7.35;;
64959;SDS011;51487;52.266;10.542;2022-12-07T09:01:17;11.95;;;7.32;;
64959;SDS011;51487;52.266;10.542;2022-12-07T09:03:43;9.88;;;7.43;;
64959;SDS011;51487;52.266;10.542;2022-12-07T09:06:08;11.00;;;7.38;;
64959;SDS011;51487;52.266;10.542;2022-12-07T09:08:38;13.52;;;8.20;;
64959;SDS011;51487;52.266;10.542;2022-12-07T09:11:11;11.38;;;8.25;;
64959;SDS011;51487;52.266;10.542;2022-12-07T09:13:36;15.63;;;8.15;;
64959;SDS011;51487;52.266;10.542;2022-12-07T09:16:02;11.35;;;7.90;;
64959;SDS011;51487;52.266;10.542;2022-12-07T09:18:27;13.95;;;7.70;;
64959;SDS011;51487;52.266;10.542;2022-12-07T09:20:53;13.18;;;7.55;;
64959;SDS011;51487;52.266;10.542;2022-12-07T09:23:18;11.27;;;7.93;;
64959;SDS011;51487;52.266;10.542;2022-12-07T09:25:44;10.77;;;8.32;;
64959;SDS011;51487;52.266;10.542;2022-12-07T09:28:09;10.23;;;8.60;;
64959;SDS011;51487;52.266;10.542;2022-12-07T09:30:35;10.93;;;8.35;;
64959;SDS011;51487;52.266;10.542;2022-12-07T09:33:01;10.90;;;7.85;;
64959;SDS011;51487;52.266;10.542;2022-12-07T09:35:26;9.73;;;7.28;;
64959;SDS011;51487;52.266;10.542;2022-12-07T09:37:52;12.23;;;8.80;;
64959;SDS011;51487;52.266;10.542;2022-12-07T09:40:19;15.18;;;8.90;;
64959;SDS011;51487;52.266;10.542;2022-12-07T09:42:48;12.30;;;8.20;;
64959;SDS011;51487;52.266;10.542;2022-12-07T09:45:32;12.00;;;8.25;;
64959;SDS011;51487;52.266;10.542;2022-12-07T09:48:02;9.75;;;8.13;;
64959;SDS011;51487;52.266;10.542;2022-12-07T09:50:29;10.98;;;8.32;;
64959;SDS011;51487;52.266;10.542;2022-12-07T09:52:56;11.15;;;8.40;;
64959;SDS011;51487;52.266;10.542;2022-12-07T09:55:50;10.68;;;6.80;;
64959;SDS011;51487;52.266;10.542;2022-12-07T09:58:23;9.75;;;7.20;;
64959;SDS011;51487;52.266;10.542;2022-12-07T10:00:53;8.27;;;6.75;;
64959;SDS011;51487;52.266;10.542;2022-12-07T10:03:23;10.20;;;6.28;;
64959;SDS011;51487;52.266;10.542;2022-12-07T10:05:51;9.30;;;6.00;;
64959;SDS011;51487;52.266;10.542;2022-12-07T10:08:18;8.43;;;6.07;;
64959;SDS011;51487;52.266;10.542;2022-12-07T10:10:44;9.23;;;6.60;;
64959;SDS011;51487;52.266;10.542;2022-12-07T10:13:17;11.63;;;6.18;;
64959;SDS011;51487;52.266;10.542;2022-12-07T10:15:48;8.07;;;6.30;;
64959;SDS011;51487;52.266;10.542;2022-12-07T10:18:25;10.60;;;6.72;;
64959;SDS011;51487;52.266;10.542;2022-12-07T10:21:08;8.82;;;6.65;;
64959;SDS011;51487;52.266;10.542;2022-12-07T10:23:38;16.00;;;7.95;;
64959;SDS011;51487;52.266;10.542;2022-12-07T10:29:21;11.82;;;6.43;;
64959;SDS011;51487;52.266;10.542;2022-12-07T10:32:23;8.23;;;6.25;;
64959;SDS011;51487;52.266;10.542;2022-12-07T10:35:17;8.68;;;5.18;;
64959;SDS011;51487;52.266;10.542;2022-12-07T10:37:53;10.50;;;5.20;;
64959;SDS011;51487;52.266;10.542;2022-12-07T10:40:38;8.10;;;4.88;;
64959;SDS011;51487;52.266;10.542;2022-12-07T10:45:53;8.43;;;5.00;;
64959;SDS011;51487;52.266;10.542;2022-12-07T10:58:39;10.60;;;6.10;;
64959;SDS011;51487;52.266;10.542;2022-12-07T11:01:30;13.30;;;6.35;;
64959;SDS011;51487;52.266;10.542;2022-12-07T11:04:25;10.57;;;6.15;;
64959;SDS011;51487;52.266;10.542;2022-12-07T11:07:01;6.85;;;5.00;;
64959;SDS011;51487;52.266;10.542;2022-12-07T11:16:07;8.10;;;4.50;;
64959;SDS011;51487;52.266;10.542;2022-12-07T11:27:51;7.15;;;3.60;;
64959;SDS011;51487;52.266;10.542;2022-12-07T11:34:10;5.63;;;3.15;;
64959;SDS011;51487;52.266;10.542;2022-12-07T11:36:53;5.68;;;3.03;;
64959;SDS011;51487;52.266;10.542;2022-12-07T11:42:04;7.60;;;3.33;;
64959;SDS011;51487;52.266;10.542;2022-12-07T11:44:42;5.85;;;3.33;;
64959;SDS011;51487;52.266;10.542;2022-12-07T11:50:26;4.22;;;2.30;;
64959;SDS011;51487;52.266;10.542;2022-12-07T11:53:14;3.97;;;2.30;;
64959;SDS011;51487;52.266;10.542;2022-12-07T11:56:03;8.70;;;2.60;;
64959;SDS011;51487;52.266;10.542;2022-12-07T12:04:05;3.65;;;3.00;;
64959;SDS011;51487;52.266;10.542;2022-12-07T12:06:34;4.53;;;2.92;;
64959;SDS011;51487;52.266;10.542;2022-12-07T12:20:00;5.85;;;2.60;;
64959;SDS011;51487;52.266;10.542;2022-12-07T12:22:39;6.93;;;3.33;;
64959;SDS011;51487;52.266;10.542;2022-12-07T12:25:27;8.45;;;2.70;;
64959;SDS011;51487;52.266;10.542;2022-12-07T12:28:01;7.53;;;3.40;;
64959;SDS011;51487;52.266;10.542;2022-12-07T12:33:17;6.57;;;2.60;;
64959;SDS011;51487;52.266;10.542;2022-12-07T12:46:59;8.43;;;3.35;;
64959;SDS011;51487;52.266;10.542;2022-12-07T12:52:53;5.63;;;2.83;;
64959;SDS011;51487;52.266;10.542;2022-12-07T12:55:42;5.75;;;2.47;;
64959;SDS011;51487;52.266;10.542;2022-12-07T12:58:36;7.38;;;2.60;;
64959;SDS011;51487;52.266;10.542;2022-12-07T13:04:01;5.30;;;2.40;;
64959;SDS011;51487;52.266;10.542;2022-12-07T13:06:39;6.40;;;2.17;;
64959;SDS011;51487;52.266;10.542;2022-12-07T13:09:15;5.75;;;2.30;;
64959;SDS011;51487;52.266;10.542;2022-12-07T13:11:47;3.58;;;2.20;;
64959;SDS011;51487;52.266;10.542;2022-12-07T13:14:39;7.25;;;2.40;;
64959;SDS011;51487;52.266;10.542;2022-12-07T13:20:02;5.50;;;1.95;;
64959;SDS011;51487;52.266;10.542;2022-12-07T13:27:47;4.53;;;2.58;;
64959;SDS011;51487;52.266;10.542;2022-12-07T13:30:22;4.30;;;2.30;;
64959;SDS011;51487;52.266;10.542;2022-12-07T13:32:52;7.13;;;2.50;;
64959;SDS011;51487;52.266;10.542;2022-12-07T13:35:54;6.00;;;3.00;;
64959;SDS011;51487;52.266;10.542;2022-12-07T13:38:33;4.18;;;3.15;;
64959;SDS011;51487;52.266;10.542;2022-12-07T13:41:11;4.28;;;2.42;;
64959;SDS011;51487;52.266;10.542;2022-12-07T13:43:44;5.00;;;2.50;;
64959;SDS011;51487;52.266;10.542;2022-12-07T13:46:34;6.53;;;2.63;;
64959;SDS011;51487;52.266;10.542;2022-12-07T13:49:33;5.07;;;2.33;;
64959;SDS011;51487;52.266;10.542;2022-12-07T13:54:45;5.70;;;2.60;;
64959;SDS011;51487;52.266;10.542;2022-12-07T13:57:20;4.85;;;2.05;;
64959;SDS011;51487;52.266;10.542;2022-12-07T13:59:47;5.38;;;1.98;;
64959;SDS011;51487;52.266;10.542;2022-12-07T14:02:26;4.78;;;2.20;;
64959;SDS011;51487;52.266;10.542;2022-12-07T14:07:48;5.53;;;2.30;;
64959;SDS011;51487;52.266;10.542;2022-12-07T14:10:26;4.88;;;2.50;;
64959;SDS011;51487;52.266;10.542;2022-12-07T14:15:22;6.40;;;2.30;;
64959;SDS011;51487;52.266;10.542;2022-12-07T14:17:54;8.07;;;2.70;;
64959;SDS011;51487;52.266;10.542;2022-12-07T14:23:02;5.93;;;2.50;;
64959;SDS011;51487;52.266;10.542;2022-12-07T14:25:44;8.27;;;2.67;;
64959;SDS011;51487;52.266;10.542;2022-12-07T14:28:26;6.18;;;2.25;;
64959;SDS011;51487;52.266;10.542;2022-12-07T14:30:58;7.75;;;2.83;;
64959;SDS011;51487;52.266;10.542;2022-12-07T14:33:24;6.40;;;2.40;;
64959;SDS011;51487;52.266;10.542;2022-12-07T14:35:51;7.05;;;2.80;;
64959;SDS011;51487;52.266;10.542;2022-12-07T14:38:20;6.65;;;2.50;;
64959;SDS011;51487;52.266;10.542;2022-12-07T14:40:46;10.90;;;2.78;;
64959;SDS011;51487;52.266;10.542;2022-12-07T14:43:15;6.35;;;3.20;;
64959;SDS011;51487;52.266;10.542;2022-12-07T14:45:42;7.07;;;3.10;;
64959;SDS011;51487;52.266;10.542;2022-12-07T14:48:12;10.63;;;3.40;;
64959;SDS011;51487;52.266;10.542;2022-12-07T14:50:41;8.07;;;2.80;;
64959;SDS011;51487;52.266;10.542;2022-12-07T14:53:14;6.70;;;3.30;;
64959;SDS011;51487;52.266;10.542;2022-12-07T14:55:43;8.00;;;3.08;;
64959;SDS011;51487;52.266;10.542;2022-12-07T14:58:13;6.47;;;2.45;;
64959;SDS011;51487;52.266;10.542;2022-12-07T15:00:40;10.32;;;3.13;;
64959;SDS011;51487;52.266;10.542;2022-12-07T15:03:06;9.50;;;3.00;;
64959;SDS011;51487;52.266;10.542;2022-12-07T15:05:32;7.30;;;3.10;;
64959;SDS011;51487;52.266;10.542;2022-12-07T15:07:59;9.93;;;3.47;;
64959;SDS011;51487;52.266;10.542;2022-12-07T15:10:28;5.20;;;2.40;;
64959;SDS011;51487;52.266;10.542;2022-12-07T15:13:01;8.68;;;2.80;;
64959;SDS011;51487;52.266;10.542;2022-12-07T15:15:47;8.85;;;3.42;;
64959;SDS011;51487;52.266;10.542;2022-12-07T15:18:14;6.00;;;2.80;;
64959;SDS011;51487;52.266;10.542;2022-12-07T15:20:41;8.98;;;3.58;;
64959;SDS011;51487;52.266;10.542;2022-12-07T15:23:06;8.00;;;2.67;;
64959;SDS011;51487;52.266;10.542;2022-12-07T15:25:32;9.45;;;2.92;;
64959;SDS011;51487;52.266;10.542;2022-12-07T15:27:58;6.35;;;2.55;;
64959;SDS011;51487;52.266;10.542;2022-12-07T15:30:24;8.27;;;3.35;;
64959;SDS011;51487;52.266;10.542;2022-12-07T15:32:50;9.50;;;3.28;;
64959;SDS011;51487;52.266;10.542;2022-12-07T15:35:17;11.30;;;2.50;;
64959;SDS011;51487;52.266;10.542;2022-12-07T15:37:43;6.72;;;2.40;;
64959;SDS011;51487;52.266;10.542;2022-12-07T15:40:08;6.80;;;2.60;;
64959;SDS011;51487;52.266;10.542;2022-12-07T15:42:35;9.13;;;2.75;;
64959;SDS011;51487;52.266;10.542;2022-12-07T15:45:01;5.85;;;2.60;;
64959;SDS011;51487;52.266;10.542;2022-12-07T15:47:28;8.80;;;2.70;;
64959;SDS011;51487;52.266;10.542;2022-12-07T15:49:55;6.90;;;2.33;;
64959;SDS011;51487;52.266;10.542;2022-12-07T15:52:20;4.85;;;2.33;;
64959;SDS011;51487;52.266;10.542;2022-12-07T15:54:46;7.38;;;2.20;;
64959;SDS011;51487;52.266;10.542;2022-12-07T15:57:12;7.63;;;2.60;;
64959;SDS011;51487;52.266;10.542;2022-12-07T15:59:38;9.05;;;2.60;;
64959;SDS011;51487;52.266;10.542;2022-12-07T16:02:04;11.90;;;4.28;;
64959;SDS011;51487;52.266;10.542;2022-12-07T16:04:29;7.53;;;2.22;;
64959;SDS011;51487;52.266;10.542;2022-12-07T16:06:55;5.28;;;2.40;;
64959;SDS011;51487;52.266;10.542;2022-12-07T16:09:21;4.22;;;2.22;;
64959;SDS011;51487;52.266;10.542;2022-12-07T16:11:47;5.72;;;2.20;;
64959;SDS011;51487;52.266;10.542;2022-12-07T16:14:13;4.50;;;2.10;;
64959;SDS011;51487;52.266;10.542;2022-12-07T16:16:38;5.15;;;2.13;;
64959;SDS011;51487;52.266;10.542;2022-12-07T16:19:05;4.68;;;1.92;;
64959;SDS011;51487;52.266;10.542;2022-12-07T16:21:30;1.73;;;1.55;;
64959;SDS011;51487;52.266;10.542;2022-12-07T16:23:59;5.20;;;1.75;;
64959;SDS011;51487;52.266;10.542;2022-12-07T16:26:24;2.88;;;1.80;;
64959;SDS011;51487;52.266;10.542;2022-12-07T16:28:50;2.22;;;1.70;;
64959;SDS011;51487;52.266;10.542;2022-12-07T16:31:19;2.80;;;1.75;;
64959;SDS011;51487;52.266;10.542;2022-12-07T16:33:47;3.60;;;2.47;;
64959;SDS011;51487;52.266;10.542;2022-12-07T16:36:14;3.45;;;1.90;;
64959;SDS011;51487;52.266;10.542;2022-12-07T16:38:42;5.63;;;2.03;;
64959;SDS011;51487;52.266;10.542;2022-12-07T16:41:09;4.65;;;1.90;;
64959;SDS011;51487;52.266;10.542;2022-12-07T16:43:36;4.30;;;2.33;;
64959;SDS011;51487;52.266;10.542;2022-12-07T16:46:02;7.80;;;2.40;;
64959;SDS011;51487;52.266;10.542;2022-12-07T16:48:28;5.72;;;2.47;;
64959;SDS011;51487;52.266;10.542;2022-12-07T16:50:54;5.05;;;2.75;;
64959;SDS011;51487;52.266;10.542;2022-12-07T16:53:20;5.75;;;2.85;;